sensor_id;sensor_type;location;lat;lon;timestamp;pressure;altitude;pressure_sealevel;temperature;humidity
34103;BME280;20381;54.498;18.206;2023-03-29T00:00:45;100021.19;;;-4.18;61.61
34103;BME280;20381;54.498;18.206;2023-03-29T00:03:13;100017.31;;;-4.21;61.75
34103;BME280;20381;54.498;18.206;2023-03-29T00:05:39;100018.16;;;-4.22;61.58
34103;BME280;20381;54.498;18.206;2023-03-29T00:08:07;100017.22;;;-4.28;61.63
34103;BME280;20381;54.498;18.206;2023-03-29T00:10:34;100019.25;;;-4.32;61.84
34103;BME280;20381;54.498;18.206;2023-03-29T00:13:01;100012.87;;;-4.33;62.03
34103;BME280;20381;54.498;18.206;2023-03-29T00:15:27;100012.81;;;-4.36;62.17
34103;BME280;20381;54.498;18.206;2023-03-29T00:17:54;100013.16;;;-4.40;62.58
34103;BME280;20381;54.498;18.206;2023-03-29T00:20:20;100023.77;;;-4.42;62.48
34103;BME280;20381;54.498;18.206;2023-03-29T00:22:47;100020.37;;;-4.41;62.69
34103;BME280;20381;54.498;18.206;2023-03-29T00:25:13;100020.80;;;-4.40;63.09
34103;BME280;20381;54.498;18.206;2023-03-29T00:27:40;100023.02;;;-4.35;62.95
34103;BME280;20381;54.498;18.206;2023-03-29T00:30:07;100026.47;;;-4.33;62.81
34103;BME280;20381;54.498;18.206;2023-03-29T00:32:35;100025.57;;;-4.35;62.73
34103;BME280;20381;54.498;18.206;2023-03-29T00:35:01;100020.94;;;-4.34;63.48
34103;BME280;20381;54.498;18.206;2023-03-29T00:37:29;100025.62;;;-4.32;64.05
34103;BME280;20381;54.498;18.206;2023-03-29T00:39:56;100020.19;;;-4.27;63.43
34103;BME280;20381;54.498;18.206;2023-03-29T00:42:24;100020.14;;;-4.30;63.48
34103;BME280;20381;54.498;18.206;2023-03-29T00:47:37;100029.86;;;-4.34;63.81
34103;BME280;20381;54.498;18.206;2023-03-29T00:50:09;100019.67;;;-4.32;63.52
34103;BME280;20381;54.498;18.206;2023-03-29T00:52:35;100023.55;;;-4.29;64.85
34103;BME280;20381;54.498;18.206;2023-03-29T00:55:07;100024.82;;;-4.29;64.67
34103;BME280;20381;54.498;18.206;2023-03-29T00:57:36;100020.58;;;-4.29;64.12
34103;BME280;20381;54.498;18.206;2023-03-29T01:00:07;100017.16;;;-4.31;64.84
34103;BME280;20381;54.498;18.206;2023-03-29T01:02:38;100017.59;;;-4.30;64.73
34103;BME280;20381;54.498;18.206;2023-03-29T01:05:15;100019.66;;;-4.34;64.17
34103;BME280;20381;54.498;18.206;2023-03-29T01:07:46;100009.84;;;-4.36;64.22
34103;BME280;20381;54.498;18.206;2023-03-29T01:10:16;100006.86;;;-4.37;64.42
34103;BME280;20381;54.498;18.206;2023-03-29T01:12:46;100006.45;;;-4.36;64.24
34103;BME280;20381;54.498;18.206;2023-03-29T01:15:16;100003.42;;;-4.39;64.15
34103;BME280;20381;54.498;18.206;2023-03-29T01:17:42;100003.80;;;-4.41;64.18
34103;BME280;20381;54.498;18.206;2023-03-29T01:25:59;100003.66;;;-4.48;66.52
34103;BME280;20381;54.498;18.206;2023-03-29T01:28:25;99999.88;;;-4.47;67.31
34103;BME280;20381;54.498;18.206;2023-03-29T01:31:00;99992.28;;;-4.44;66.92
34103;BME280;20381;54.498;18.206;2023-03-29T01:33:30;99991.95;;;-4.39;67.82
34103;BME280;20381;54.498;18.206;2023-03-29T01:36:13;99994.13;;;-4.37;66.60
34103;BME280;20381;54.498;18.206;2023-03-29T01:38:43;99988.55;;;-4.39;66.24
34103;BME280;20381;54.498;18.206;2023-03-29T01:41:10;99989.30;;;-4.45;66.37
34103;BME280;20381;54.498;18.206;2023-03-29T01:43:42;99987.89;;;-4.51;65.60
34103;BME280;20381;54.498;18.206;2023-03-29T01:49:02;99984.02;;;-4.54;65.33
34103;BME280;20381;54.498;18.206;2023-03-29T01:51:37;99989.05;;;-4.59;65.20
34103;BME280;20381;54.498;18.206;2023-03-29T01:54:17;99991.13;;;-4.61;65.19
34103;BME280;20381;54.498;18.206;2023-03-29T01:56:42;99986.84;;;-4.62;65.47
34103;BME280;20381;54.498;18.206;2023-03-29T01:59:13;99985.19;;;-4.60;65.69
34103;BME280;20381;54.498;18.206;2023-03-29T02:01:44;99985.98;;;-4.64;65.18
34103;BME280;20381;54.498;18.206;2023-03-29T02:04:13;99982.92;;;-4.68;65.24
34103;BME280;20381;54.498;18.206;2023-03-29T02:06:42;99985.03;;;-4.69;65.33
34103;BME280;20381;54.498;18.206;2023-03-29T02:09:09;99981.59;;;-4.72;65.54
34103;BME280;20381;54.498;18.206;2023-03-29T02:11:37;99987.06;;;-4.74;65.37
34103;BME280;20381;54.498;18.206;2023-03-29T02:14:03;99995.06;;;-4.79;65.40
34103;BME280;20381;54.498;18.206;2023-03-29T02:16:35;99988.16;;;-4.84;65.10
34103;BME280;20381;54.498;18.206;2023-03-29T02:19:02;99993.58;;;-4.89;65.38
34103;BME280;20381;54.498;18.206;2023-03-29T02:21:42;99987.16;;;-4.91;65.65
34103;BME280;20381;54.498;18.206;2023-03-29T02:24:11;99987.20;;;-4.89;66.64
34103;BME280;20381;54.498;18.206;2023-03-29T02:26:39;99985.53;;;-4.87;68.32
34103;BME280;20381;54.498;18.206;2023-03-29T02:29:05;99987.28;;;-4.85;66.74
34103;BME280;20381;54.498;18.206;2023-03-29T02:31:37;99986.00;;;-4.85;67.42
34103;BME280;20381;54.498;18.206;2023-03-29T02:36:43;99992.42;;;-4.82;67.31
34103;BME280;20381;54.498;18.206;2023-03-29T02:39:12;99983.19;;;-4.77;67.41
34103;BME280;20381;54.498;18.206;2023-03-29T02:41:42;99983.28;;;-4.72;66.98
34103;BME280;20381;54.498;18.206;2023-03-29T02:44:12;99983.23;;;-4.74;66.26
34103;BME280;20381;54.498;18.206;2023-03-29T02:46:39;99988.69;;;-4.79;66.29
34103;BME280;20381;54.498;18.206;2023-03-29T02:49:09;99981.42;;;-4.81;66.33
34103;BME280;20381;54.498;18.206;2023-03-29T02:51:36;99974.54;;;-4.85;66.25
34103;BME280;20381;54.498;18.206;2023-03-29T02:54:14;99984.73;;;-4.85;66.45
34103;BME280;20381;54.498;18.206;2023-03-29T02:56:45;99975.42;;;-4.84;66.46
34103;BME280;20381;54.498;18.206;2023-03-29T02:59:13;99977.14;;;-4.82;66.50
34103;BME280;20381;54.498;18.206;2023-03-29T03:01:39;99975.00;;;-4.84;66.48
34103;BME280;20381;54.498;18.206;2023-03-29T03:04:08;99974.53;;;-4.86;66.54
34103;BME280;20381;54.498;18.206;2023-03-29T03:06:36;99977.44;;;-4.90;66.48
34103;BME280;20381;54.498;18.206;2023-03-29T03:09:02;99980.80;;;-4.91;66.59
34103;BME280;20381;54.498;18.206;2023-03-29T03:11:29;99977.81;;;-4.92;66.86
34103;BME280;20381;54.498;18.206;2023-03-29T03:13:56;99970.98;;;-4.93;66.66
34103;BME280;20381;54.498;18.206;2023-03-29T03:16:22;99971.83;;;-4.94;66.73
34103;BME280;20381;54.498;18.206;2023-03-29T03:18:49;99977.81;;;-4.92;66.83
34103;BME280;20381;54.498;18.206;2023-03-29T03:21:17;99969.76;;;-4.91;66.85
34103;BME280;20381;54.498;18.206;2023-03-29T03:23:43;99968.06;;;-4.91;66.94
34103;BME280;20381;54.498;18.206;2023-03-29T03:26:13;99968.91;;;-4.92;67.03
34103;BME280;20381;54.498;18.206;2023-03-29T03:28:40;99964.24;;;-4.91;66.98
34103;BME280;20381;54.498;18.206;2023-03-29T03:31:06;99962.91;;;-4.94;67.05
34103;BME280;20381;54.498;18.206;2023-03-29T03:33:33;99959.09;;;-4.94;67.09
34103;BME280;20381;54.498;18.206;2023-03-29T03:35:59;99963.34;;;-4.93;67.24
34103;BME280;20381;54.498;18.206;2023-03-29T03:38:28;99970.45;;;-5.00;67.04
34103;BME280;20381;54.498;18.206;2023-03-29T03:40:56;99962.17;;;-5.10;66.96
34103;BME280;20381;54.498;18.206;2023-03-29T03:43:23;99973.03;;;-5.19;67.01
34103;BME280;20381;54.498;18.206;2023-03-29T03:45:49;99971.04;;;-5.34;66.77
34103;BME280;20381;54.498;18.206;2023-03-29T03:48:16;99969.68;;;-5.57;66.62
34103;BME280;20381;54.498;18.206;2023-03-29T03:50:51;99967.78;;;-5.68;66.81
34103;BME280;20381;54.498;18.206;2023-03-29T03:53:19;99977.05;;;-5.70;66.98
34103;BME280;20381;54.498;18.206;2023-03-29T03:55:50;99971.97;;;-5.70;67.08
34103;BME280;20381;54.498;18.206;2023-03-29T03:58:17;99971.97;;;-5.70;67.37
34103;BME280;20381;54.498;18.206;2023-03-29T04:00:49;99968.92;;;-5.74;67.27
34103;BME280;20381;54.498;18.206;2023-03-29T04:03:16;99964.09;;;-5.80;67.21
34103;BME280;20381;54.498;18.206;2023-03-29T04:05:44;99967.41;;;-5.85;67.30
34103;BME280;20381;54.498;18.206;2023-03-29T04:08:11;99967.29;;;-5.89;67.26
34103;BME280;20381;54.498;18.206;2023-03-29T04:10:39;99968.88;;;-5.96;67.23
34103;BME280;20381;54.498;18.206;2023-03-29T04:13:05;99975.48;;;-6.02;67.33
34103;BME280;20381;54.498;18.206;2023-03-29T04:15:33;99976.11;;;-6.13;67.11
34103;BME280;20381;54.498;18.206;2023-03-29T04:18:01;99970.56;;;-6.31;67.09
34103;BME280;20381;54.498;18.206;2023-03-29T04:20:27;99975.50;;;-6.37;67.20
34103;BME280;20381;54.498;18.206;2023-03-29T04:22:55;99970.20;;;-6.46;67.41
34103;BME280;20381;54.498;18.206;2023-03-29T04:25:21;99970.70;;;-6.60;67.23
34103;BME280;20381;54.498;18.206;2023-03-29T04:27:49;99968.89;;;-6.64;67.42
34103;BME280;20381;54.498;18.206;2023-03-29T04:30:16;99971.67;;;-6.72;67.44
34103;BME280;20381;54.498;18.206;2023-03-29T04:32:42;99973.72;;;-6.74;67.83
34103;BME280;20381;54.498;18.206;2023-03-29T04:35:10;99963.84;;;-6.80;67.71
34103;BME280;20381;54.498;18.206;2023-03-29T04:37:36;99966.80;;;-6.80;67.96
34103;BME280;20381;54.498;18.206;2023-03-29T04:40:10;99961.72;;;-6.80;68.13
34103;BME280;20381;54.498;18.206;2023-03-29T04:42:40;99969.41;;;-6.77;68.13
34103;BME280;20381;54.498;18.206;2023-03-29T04:45:09;99969.13;;;-6.72;67.96
34103;BME280;20381;54.498;18.206;2023-03-29T04:47:36;99967.03;;;-6.71;67.85
34103;BME280;20381;54.498;18.206;2023-03-29T04:50:05;99961.59;;;-6.69;68.49
34103;BME280;20381;54.498;18.206;2023-03-29T04:52:33;99964.20;;;-6.66;68.12
34103;BME280;20381;54.498;18.206;2023-03-29T04:55:00;99962.33;;;-6.56;68.10
34103;BME280;20381;54.498;18.206;2023-03-29T04:57:29;99959.50;;;-6.50;68.31
34103;BME280;20381;54.498;18.206;2023-03-29T04:59:56;99956.02;;;-6.38;68.37
34103;BME280;20381;54.498;18.206;2023-03-29T05:02:23;99944.49;;;-6.24;68.84
34103;BME280;20381;54.498;18.206;2023-03-29T05:04:49;99946.89;;;-6.11;68.17
34103;BME280;20381;54.498;18.206;2023-03-29T05:07:17;99944.17;;;-6.01;68.64
34103;BME280;20381;54.498;18.206;2023-03-29T05:09:44;99948.95;;;-5.96;68.42
34103;BME280;20381;54.498;18.206;2023-03-29T05:12:11;99952.72;;;-5.98;67.73
34103;BME280;20381;54.498;18.206;2023-03-29T05:14:37;99959.52;;;-5.97;67.88
34103;BME280;20381;54.498;18.206;2023-03-29T05:17:04;99959.64;;;-5.91;68.36
34103;BME280;20381;54.498;18.206;2023-03-29T05:19:31;99956.58;;;-5.76;68.48
34103;BME280;20381;54.498;18.206;2023-03-29T05:21:58;99957.92;;;-5.52;68.99
34103;BME280;20381;54.498;18.206;2023-03-29T05:24:24;99958.50;;;-5.25;69.10
34103;BME280;20381;54.498;18.206;2023-03-29T05:26:51;99953.45;;;-5.01;69.42
34103;BME280;20381;54.498;18.206;2023-03-29T05:29:17;99951.62;;;-4.85;69.04
34103;BME280;20381;54.498;18.206;2023-03-29T05:31:44;99954.08;;;-4.67;69.20
34103;BME280;20381;54.498;18.206;2023-03-29T05:34:12;99942.63;;;-4.41;69.31
34103;BME280;20381;54.498;18.206;2023-03-29T05:36:38;99944.69;;;-4.20;69.36
34103;BME280;20381;54.498;18.206;2023-03-29T05:39:04;99947.23;;;-3.92;69.64
34103;BME280;20381;54.498;18.206;2023-03-29T05:41:31;99940.87;;;-3.59;69.76
34103;BME280;20381;54.498;18.206;2023-03-29T05:43:58;99949.88;;;-3.22;69.80
34103;BME280;20381;54.498;18.206;2023-03-29T05:46:28;99944.20;;;-2.95;69.51
34103;BME280;20381;54.498;18.206;2023-03-29T05:48:53;99946.02;;;-2.84;68.85
34103;BME280;20381;54.498;18.206;2023-03-29T05:51:20;99942.59;;;-2.86;68.70
34103;BME280;20381;54.498;18.206;2023-03-29T05:53:48;99931.94;;;-2.87;68.70
34103;BME280;20381;54.498;18.206;2023-03-29T05:56:14;99948.78;;;-2.66;69.00
34103;BME280;20381;54.498;18.206;2023-03-29T05:58:41;99942.28;;;-2.27;69.77
34103;BME280;20381;54.498;18.206;2023-03-29T06:01:12;99933.22;;;-1.82;69.86
34103;BME280;20381;54.498;18.206;2023-03-29T06:03:39;99929.17;;;-1.43;69.68
34103;BME280;20381;54.498;18.206;2023-03-29T06:06:06;99919.09;;;-1.06;69.78
34103;BME280;20381;54.498;18.206;2023-03-29T06:08:36;99923.43;;;-0.75;69.60
34103;BME280;20381;54.498;18.206;2023-03-29T06:11:08;99921.77;;;-0.42;69.64
34103;BME280;20381;54.498;18.206;2023-03-29T06:13:37;99920.04;;;-0.08;69.81
34103;BME280;20381;54.498;18.206;2023-03-29T06:16:06;99919.97;;;0.25;69.64
34103;BME280;20381;54.498;18.206;2023-03-29T06:18:35;99924.17;;;0.53;69.40
34103;BME280;20381;54.498;18.206;2023-03-29T06:21:05;99919.78;;;0.83;69.46
34103;BME280;20381;54.498;18.206;2023-03-29T06:23:34;99922.22;;;1.10;69.25
34103;BME280;20381;54.498;18.206;2023-03-29T06:26:01;99920.42;;;1.25;68.93
34103;BME280;20381;54.498;18.206;2023-03-29T06:28:27;99922.39;;;1.48;69.05
34103;BME280;20381;54.498;18.206;2023-03-29T06:30:53;99918.41;;;1.67;68.33
34103;BME280;20381;54.498;18.206;2023-03-29T06:33:22;99913.91;;;1.90;68.37
34103;BME280;20381;54.498;18.206;2023-03-29T06:35:50;99915.89;;;2.11;67.32
34103;BME280;20381;54.498;18.206;2023-03-29T06:38:16;99911.85;;;2.26;66.95
34103;BME280;20381;54.498;18.206;2023-03-29T06:40:42;99913.32;;;2.50;67.00
34103;BME280;20381;54.498;18.206;2023-03-29T06:43:09;99910.42;;;2.76;67.26
34103;BME280;20381;54.498;18.206;2023-03-29T06:45:37;99894.69;;;2.96;64.99
34103;BME280;20381;54.498;18.206;2023-03-29T06:48:05;99885.91;;;3.11;66.02
34103;BME280;20381;54.498;18.206;2023-03-29T06:50:33;99876.83;;;3.43;66.10
34103;BME280;20381;54.498;18.206;2023-03-29T06:52:59;99876.67;;;3.77;65.52
34103;BME280;20381;54.498;18.206;2023-03-29T06:55:26;99870.25;;;4.00;65.85
34103;BME280;20381;54.498;18.206;2023-03-29T06:57:53;99869.53;;;4.59;66.39
34103;BME280;20381;54.498;18.206;2023-03-29T07:00:21;99869.53;;;4.59;66.39
34103;BME280;20381;54.498;18.206;2023-03-29T07:02:54;99866.19;;;4.96;63.11
34103;BME280;20381;54.498;18.206;2023-03-29T07:05:21;99868.02;;;5.30;65.25
34103;BME280;20381;54.498;18.206;2023-03-29T07:07:48;99863.63;;;5.68;63.17
34103;BME280;20381;54.498;18.206;2023-03-29T07:10:21;99856.70;;;6.35;64.64
34103;BME280;20381;54.498;18.206;2023-03-29T07:12:49;99856.03;;;7.03;65.18
34103;BME280;20381;54.498;18.206;2023-03-29T07:15:17;99853.23;;;7.50;64.12
34103;BME280;20381;54.498;18.206;2023-03-29T07:17:43;99849.73;;;8.03;64.60
34103;BME280;20381;54.498;18.206;2023-03-29T07:20:10;99848.24;;;8.69;66.54
34103;BME280;20381;54.498;18.206;2023-03-29T07:22:41;99850.19;;;9.95;65.90
34103;BME280;20381;54.498;18.206;2023-03-29T07:25:09;99850.19;;;9.95;65.90
34103;BME280;20381;54.498;18.206;2023-03-29T07:27:38;99839.66;;;10.47;66.45
34103;BME280;20381;54.498;18.206;2023-03-29T07:30:07;99846.82;;;11.09;67.11
34103;BME280;20381;54.498;18.206;2023-03-29T07:32:37;99840.35;;;11.70;67.06
34103;BME280;20381;54.498;18.206;2023-03-29T07:35:06;99838.25;;;12.29;61.48
34103;BME280;20381;54.498;18.206;2023-03-29T07:37:33;99843.64;;;12.59;66.19
34103;BME280;20381;54.498;18.206;2023-03-29T07:40:02;99841.22;;;13.19;66.20
34103;BME280;20381;54.498;18.206;2023-03-29T07:42:31;99842.92;;;13.36;64.28
34103;BME280;20381;54.498;18.206;2023-03-29T07:44:58;99837.39;;;14.01;64.18
34103;BME280;20381;54.498;18.206;2023-03-29T07:47:25;99836.52;;;14.60;64.24
34103;BME280;20381;54.498;18.206;2023-03-29T07:49:51;99833.44;;;15.02;64.56
34103;BME280;20381;54.498;18.206;2023-03-29T07:52:17;99835.55;;;15.43;62.66
34103;BME280;20381;54.498;18.206;2023-03-29T07:54:44;99829.21;;;15.73;61.40
34103;BME280;20381;54.498;18.206;2023-03-29T07:57:10;99830.08;;;15.86;59.65
34103;BME280;20381;54.498;18.206;2023-03-29T07:59:36;99828.31;;;16.25;55.60
34103;BME280;20381;54.498;18.206;2023-03-29T08:02:03;99833.20;;;16.68;60.83
34103;BME280;20381;54.498;18.206;2023-03-29T08:04:30;99824.78;;;17.37;61.71
34103;BME280;20381;54.498;18.206;2023-03-29T08:06:57;99828.11;;;17.87;60.52
34103;BME280;20381;54.498;18.206;2023-03-29T08:09:23;99827.16;;;17.99;61.24
34103;BME280;20381;54.498;18.206;2023-03-29T08:11:51;99830.44;;;18.59;57.27
34103;BME280;20381;54.498;18.206;2023-03-29T08:14:17;99830.11;;;18.75;56.71
34103;BME280;20381;54.498;18.206;2023-03-29T08:16:43;99835.87;;;18.46;51.42
34103;BME280;20381;54.498;18.206;2023-03-29T08:19:11;99829.11;;;18.70;59.11
34103;BME280;20381;54.498;18.206;2023-03-29T08:21:39;99824.91;;;19.66;59.39
34103;BME280;20381;54.498;18.206;2023-03-29T08:24:05;99821.29;;;20.86;60.82
34103;BME280;20381;54.498;18.206;2023-03-29T08:26:33;99823.02;;;21.41;55.90
34103;BME280;20381;54.498;18.206;2023-03-29T08:28:59;99818.13;;;21.46;50.80
34103;BME280;20381;54.498;18.206;2023-03-29T08:31:27;99823.44;;;21.46;56.84
34103;BME280;20381;54.498;18.206;2023-03-29T08:33:53;99821.47;;;22.10;57.13
34103;BME280;20381;54.498;18.206;2023-03-29T08:36:19;99821.84;;;22.63;56.62
34103;BME280;20381;54.498;18.206;2023-03-29T08:38:46;99813.76;;;23.10;45.89
34103;BME280;20381;54.498;18.206;2023-03-29T08:46:43;99809.13;;;22.56;54.13
34103;BME280;20381;54.498;18.206;2023-03-29T08:49:10;99805.23;;;23.60;56.61
34103;BME280;20381;54.498;18.206;2023-03-29T08:51:44;99799.75;;;24.35;51.77
34103;BME280;20381;54.498;18.206;2023-03-29T08:54:22;99799.48;;;23.90;51.66
34103;BME280;20381;54.498;18.206;2023-03-29T08:56:57;99800.47;;;23.67;49.38
34103;BME280;20381;54.498;18.206;2023-03-29T08:59:28;99803.58;;;23.23;51.53
34103;BME280;20381;54.498;18.206;2023-03-29T09:01:56;99793.87;;;24.28;52.12
34103;BME280;20381;54.498;18.206;2023-03-29T09:04:28;99794.94;;;24.77;51.30
34103;BME280;20381;54.498;18.206;2023-03-29T09:06:56;99796.07;;;25.26;52.78
34103;BME280;20381;54.498;18.206;2023-03-29T09:09:28;99796.63;;;26.42;52.53
34103;BME280;20381;54.498;18.206;2023-03-29T09:12:13;99795.71;;;26.19;48.48
34103;BME280;20381;54.498;18.206;2023-03-29T09:14:56;99804.43;;;25.96;47.83
34103;BME280;20381;54.498;18.206;2023-03-29T09:23:00;99800.08;;;27.49;48.27
34103;BME280;20381;54.498;18.206;2023-03-29T09:31:04;99785.75;;;28.43;51.05
34103;BME280;20381;54.498;18.206;2023-03-29T09:33:45;99782.91;;;29.06;50.18
34103;BME280;20381;54.498;18.206;2023-03-29T09:36:29;99779.28;;;29.85;49.04
34103;BME280;20381;54.498;18.206;2023-03-29T09:38:52;99781.77;;;29.97;47.34
34103;BME280;20381;54.498;18.206;2023-03-29T09:44:02;99777.68;;;29.19;46.10
34103;BME280;20381;54.498;18.206;2023-03-29T09:46:43;99775.73;;;29.56;44.35
34103;BME280;20381;54.498;18.206;2023-03-29T09:49:15;99770.43;;;29.52;45.39
34103;BME280;20381;54.498;18.206;2023-03-29T09:51:43;99765.61;;;29.58;40.26
34103;BME280;20381;54.498;18.206;2023-03-29T09:54:11;99767.75;;;29.31;40.59
34103;BME280;20381;54.498;18.206;2023-03-29T09:56:38;99766.72;;;29.92;43.48
34103;BME280;20381;54.498;18.206;2023-03-29T09:59:05;99756.92;;;30.02;39.87
34103;BME280;20381;54.498;18.206;2023-03-29T10:01:37;99762.41;;;28.58;35.56
34103;BME280;20381;54.498;18.206;2023-03-29T10:04:08;99765.29;;;28.27;38.54
34103;BME280;20381;54.498;18.206;2023-03-29T10:06:40;99748.05;;;29.52;36.78
34103;BME280;20381;54.498;18.206;2023-03-29T10:09:10;99753.71;;;29.85;39.24
34103;BME280;20381;54.498;18.206;2023-03-29T10:11:36;99749.15;;;29.68;39.09
34103;BME280;20381;54.498;18.206;2023-03-29T10:14:11;99749.73;;;29.53;35.66
34103;BME280;20381;54.498;18.206;2023-03-29T10:16:40;99744.81;;;29.35;29.39
34103;BME280;20381;54.498;18.206;2023-03-29T10:19:21;99747.35;;;27.60;32.68
34103;BME280;20381;54.498;18.206;2023-03-29T10:21:50;99744.88;;;26.85;29.27
34103;BME280;20381;54.498;18.206;2023-03-29T10:24:25;99743.00;;;26.67;32.76
34103;BME280;20381;54.498;18.206;2023-03-29T10:26:58;99744.20;;;26.87;28.61
34103;BME280;20381;54.498;18.206;2023-03-29T10:29:25;99740.09;;;25.73;30.73
34103;BME280;20381;54.498;18.206;2023-03-29T10:31:52;99724.20;;;25.76;33.05
34103;BME280;20381;54.498;18.206;2023-03-29T10:34:21;99726.87;;;24.82;31.53
34103;BME280;20381;54.498;18.206;2023-03-29T10:36:56;99724.09;;;25.28;33.49
34103;BME280;20381;54.498;18.206;2023-03-29T10:39:25;99719.06;;;25.45;32.93
34103;BME280;20381;54.498;18.206;2023-03-29T10:41:52;99715.26;;;25.15;33.77
34103;BME280;20381;54.498;18.206;2023-03-29T10:44:28;99712.96;;;24.19;31.35
34103;BME280;20381;54.498;18.206;2023-03-29T10:46:55;99717.60;;;22.49;32.21
34103;BME280;20381;54.498;18.206;2023-03-29T10:49:22;99729.20;;;20.57;27.20
34103;BME280;20381;54.498;18.206;2023-03-29T10:51:51;99731.52;;;18.62;28.77
34103;BME280;20381;54.498;18.206;2023-03-29T10:54:19;99728.29;;;17.74;31.30
34103;BME280;20381;54.498;18.206;2023-03-29T10:56:55;99719.84;;;17.16;30.95
34103;BME280;20381;54.498;18.206;2023-03-29T11:13:01;99710.80;;;14.10;30.89
34103;BME280;20381;54.498;18.206;2023-03-29T11:26:29;99695.80;;;14.05;32.63
34103;BME280;20381;54.498;18.206;2023-03-29T11:29:07;99698.88;;;14.26;31.22
34103;BME280;20381;54.498;18.206;2023-03-29T11:34:30;99688.30;;;13.78;31.97
34103;BME280;20381;54.498;18.206;2023-03-29T11:42:20;99686.06;;;14.15;33.04
34103;BME280;20381;54.498;18.206;2023-03-29T11:44:46;99681.00;;;13.83;33.11
34103;BME280;20381;54.498;18.206;2023-03-29T11:47:19;99685.67;;;13.63;33.32
34103;BME280;20381;54.498;18.206;2023-03-29T11:52:36;99685.63;;;12.74;33.86
34103;BME280;20381;54.498;18.206;2023-03-29T11:57:51;99674.02;;;12.33;33.98
34103;BME280;20381;54.498;18.206;2023-03-29T12:00:27;99673.33;;;12.13;34.49
34103;BME280;20381;54.498;18.206;2023-03-29T12:03:06;99679.20;;;12.01;34.56
34103;BME280;20381;54.498;18.206;2023-03-29T12:05:48;99677.53;;;12.00;33.64
34103;BME280;20381;54.498;18.206;2023-03-29T12:08:27;99667.75;;;12.19;34.76
34103;BME280;20381;54.498;18.206;2023-03-29T12:14:04;99652.33;;;13.51;35.63
34103;BME280;20381;54.498;18.206;2023-03-29T12:19:02;99649.40;;;16.70;35.07
34103;BME280;20381;54.498;18.206;2023-03-29T12:21:28;99639.59;;;18.05;35.40
34103;BME280;20381;54.498;18.206;2023-03-29T12:23:58;99643.10;;;17.19;34.88
34103;BME280;20381;54.498;18.206;2023-03-29T12:29:50;99639.31;;;16.64;35.22
34103;BME280;20381;54.498;18.206;2023-03-29T12:32:46;99635.19;;;16.12;35.55
34103;BME280;20381;54.498;18.206;2023-03-29T12:38:21;99628.85;;;14.13;34.64
34103;BME280;20381;54.498;18.206;2023-03-29T12:40:54;99633.02;;;13.38;35.80
34103;BME280;20381;54.498;18.206;2023-03-29T12:43:35;99627.45;;;12.91;35.16
34103;BME280;20381;54.498;18.206;2023-03-29T12:46:08;99625.28;;;12.53;35.29
34103;BME280;20381;54.498;18.206;2023-03-29T12:48:43;99627.20;;;12.26;36.04
34103;BME280;20381;54.498;18.206;2023-03-29T12:51:17;99626.78;;;11.86;35.82
34103;BME280;20381;54.498;18.206;2023-03-29T12:53:50;99620.77;;;11.60;36.16
34103;BME280;20381;54.498;18.206;2023-03-29T12:56:22;99617.41;;;11.49;36.37
34103;BME280;20381;54.498;18.206;2023-03-29T12:59:33;99626.75;;;11.20;36.60
34103;BME280;20381;54.498;18.206;2023-03-29T13:02:02;99630.48;;;10.81;37.06
34103;BME280;20381;54.498;18.206;2023-03-29T13:04:52;99630.24;;;10.32;37.17
34103;BME280;20381;54.498;18.206;2023-03-29T13:10:01;99621.85;;;10.06;37.72
34103;BME280;20381;54.498;18.206;2023-03-29T13:12:43;99621.27;;;10.19;37.92
34103;BME280;20381;54.498;18.206;2023-03-29T13:20:44;99622.89;;;10.40;38.42
34103;BME280;20381;54.498;18.206;2023-03-29T13:36:58;99604.58;;;10.04;39.34
34103;BME280;20381;54.498;18.206;2023-03-29T13:39:29;99579.39;;;9.56;39.62
34103;BME280;20381;54.498;18.206;2023-03-29T13:42:18;99579.39;;;9.56;39.62
34103;BME280;20381;54.498;18.206;2023-03-29T13:44:46;99578.66;;;9.24;40.33
34103;BME280;20381;54.498;18.206;2023-03-29T13:47:39;99598.23;;;9.13;40.22
34103;BME280;20381;54.498;18.206;2023-03-29T13:50:13;99589.39;;;8.97;40.78
34103;BME280;20381;54.498;18.206;2023-03-29T13:52:50;99593.73;;;8.76;40.93
34103;BME280;20381;54.498;18.206;2023-03-29T13:55:25;99589.59;;;8.82;40.61
34103;BME280;20381;54.498;18.206;2023-03-29T13:57:58;99587.74;;;8.84;40.69
34103;BME280;20381;54.498;18.206;2023-03-29T14:00:31;99586.38;;;8.96;40.89
34103;BME280;20381;54.498;18.206;2023-03-29T14:02:56;99577.50;;;9.21;40.97
34103;BME280;20381;54.498;18.206;2023-03-29T14:05:27;99575.30;;;9.22;41.99
34103;BME280;20381;54.498;18.206;2023-03-29T14:07:53;99581.17;;;9.06;41.57
34103;BME280;20381;54.498;18.206;2023-03-29T14:10:28;99571.55;;;8.78;41.85
34103;BME280;20381;54.498;18.206;2023-03-29T14:12:52;99580.39;;;8.63;41.69
34103;BME280;20381;54.498;18.206;2023-03-29T14:15:24;99582.25;;;8.60;41.81
34103;BME280;20381;54.498;18.206;2023-03-29T14:17:56;99579.22;;;8.60;41.78
34103;BME280;20381;54.498;18.206;2023-03-29T14:20:23;99573.16;;;8.70;41.89
34103;BME280;20381;54.498;18.206;2023-03-29T14:22:50;99574.61;;;8.77;41.81
34103;BME280;20381;54.498;18.206;2023-03-29T14:25:19;99568.30;;;8.83;41.92
34103;BME280;20381;54.498;18.206;2023-03-29T14:27:47;99566.59;;;8.82;42.11
34103;BME280;20381;54.498;18.206;2023-03-29T14:30:26;99561.46;;;8.80;42.06
34103;BME280;20381;54.498;18.206;2023-03-29T14:32:54;99567.37;;;8.63;42.11
34103;BME280;20381;54.498;18.206;2023-03-29T14:35:29;99564.86;;;8.40;42.58
34103;BME280;20381;54.498;18.206;2023-03-29T14:37:57;99567.40;;;8.19;43.92
34103;BME280;20381;54.498;18.206;2023-03-29T14:40:24;99559.17;;;8.08;43.47
34103;BME280;20381;54.498;18.206;2023-03-29T14:42:52;99564.12;;;8.04;43.18
34103;BME280;20381;54.498;18.206;2023-03-29T14:45:20;99557.08;;;8.06;43.43
34103;BME280;20381;54.498;18.206;2023-03-29T14:47:50;99555.86;;;8.04;43.48